createdAt,value
2016-04-23T00:00:48.076Z,956
2016-04-23T00:01:48.079Z,955.93
2016-04-23T00:02:48.082Z,955.91
2016-04-23T00:03:48.099Z,955.9
2016-04-23T00:04:48.102Z,955.87
2016-04-23T00:05:48.136Z,955.86
2016-04-23T00:06:48.124Z,955.89
2016-04-23T00:07:48.126Z,955.84
2016-04-23T00:08:48.129Z,955.83
2016-04-23T00:09:48.146Z,955.82
2016-04-23T00:10:48.166Z,955.8
2016-04-23T00:11:48.152Z,955.8
2016-04-23T00:12:48.171Z,955.79
2016-04-23T00:13:48.173Z,955.78
2016-04-23T00:14:48.176Z,955.81
2016-04-23T00:15:48.195Z,955.79
2016-04-23T00:16:48.197Z,955.77
2016-04-23T00:17:48.200Z,955.77
2016-04-23T00:18:48.218Z,955.76
2016-04-23T00:19:48.221Z,955.72
2016-04-23T00:20:48.223Z,955.71
2016-04-23T00:21:48.242Z,955.69
2016-04-23T00:22:48.245Z,955.71
2016-04-23T00:23:48.247Z,955.65
2016-04-23T00:24:48.250Z,955.62
2016-04-23T00:25:48.269Z,955.6
2016-04-23T00:26:48.271Z,955.63
2016-04-23T00:27:48.289Z,955.57
2016-04-23T00:28:48.292Z,955.6
2016-04-23T00:29:48.294Z,955.57
2016-04-23T00:30:48.313Z,955.52
2016-04-23T00:31:48.316Z,955.5
2016-04-23T00:32:48.319Z,955.51
2016-04-23T00:33:48.321Z,955.54
2016-04-23T00:34:48.339Z,955.53
2016-04-23T00:35:48.342Z,955.53
2016-04-23T00:36:48.360Z,955.51
2016-04-23T00:37:48.363Z,955.47
2016-04-23T00:38:48.366Z,955.49
2016-04-23T00:39:48.368Z,955.47
2016-04-23T00:40:48.387Z,955.45
2016-04-23T00:41:48.390Z,955.42
2016-04-23T00:42:48.407Z,955.46
2016-04-23T00:43:48.410Z,955.45
2016-04-23T00:44:48.413Z,955.42
2016-04-23T00:45:48.416Z,955.38
2016-04-23T00:46:48.434Z,955.37
2016-04-23T00:47:48.437Z,955.41
2016-04-23T00:48:48.440Z,955.39
2016-04-23T00:49:48.458Z,955.37
2016-04-23T00:50:48.461Z,955.39
2016-04-23T00:51:48.463Z,955.31
2016-04-23T00:52:48.467Z,955.3
2016-04-23T00:53:48.484Z,955.28
2016-04-23T00:54:48.487Z,955.25
2016-04-23T00:55:48.505Z,955.26
2016-04-23T00:56:48.508Z,955.24
2016-04-23T00:57:48.526Z,955.19
2016-04-23T00:58:48.528Z,955.19
2016-04-23T00:59:48.531Z,955.14
2016-04-23T01:00:48.534Z,955.13
2016-04-23T01:01:48.537Z,955.15
2016-04-23T01:02:48.555Z,955.07
2016-04-23T01:03:48.557Z,955.09
2016-04-23T01:04:48.560Z,955.06
2016-04-23T01:05:48.580Z,955.01
2016-04-23T01:06:48.582Z,955.04
2016-04-23T01:07:48.584Z,955
2016-04-23T01:08:48.588Z,955
2016-04-23T01:09:48.605Z,954.99
2016-04-23T01:10:48.608Z,954.98
2016-04-23T01:11:48.626Z,954.97
2016-04-23T01:12:48.630Z,954.96
2016-04-23T01:13:48.632Z,954.96
2016-04-23T01:14:48.634Z,954.96
2016-04-23T01:15:48.653Z,954.95
2016-04-23T01:16:48.655Z,954.93
2016-04-23T01:17:48.674Z,954.94
2016-04-23T01:18:48.676Z,954.91
2016-04-23T01:19:48.679Z,954.91
2016-04-23T01:20:48.682Z,954.91
2016-04-23T01:21:48.701Z,954.91
2016-04-23T01:22:48.703Z,954.88
2016-04-23T01:23:48.705Z,954.84
2016-04-23T01:24:48.709Z,954.87
2016-04-23T01:25:48.726Z,954.86
2016-04-23T01:26:48.729Z,954.86
2016-04-23T01:27:48.731Z,954.83
2016-04-23T01:28:48.750Z,954.87
2016-04-23T01:29:48.753Z,954.85
2016-04-23T01:30:48.755Z,954.85
2016-04-23T01:31:48.774Z,954.86
2016-04-23T01:32:48.777Z,954.83
2016-04-23T01:33:48.780Z,954.85
2016-04-23T01:34:48.797Z,954.8
2016-04-23T01:35:48.800Z,954.77
2016-04-23T01:36:48.803Z,954.73
2016-04-23T01:37:48.821Z,954.72
2016-04-23T01:38:48.824Z,954.72
2016-04-23T01:39:48.843Z,954.72
2016-04-23T01:40:48.845Z,954.68
2016-04-23T01:41:48.848Z,954.71
2016-04-23T01:42:48.851Z,954.7
2016-04-23T01:43:48.868Z,954.7
2016-04-23T01:44:48.871Z,954.71
2016-04-23T01:45:48.874Z,954.71
2016-04-23T01:46:48.893Z,954.72
2016-04-23T01:47:48.895Z,954.67
2016-04-23T01:48:48.898Z,954.64
2016-04-23T01:49:48.901Z,954.63
2016-04-23T01:50:48.918Z,954.66
2016-04-23T01:51:48.921Z,954.62
2016-04-23T01:52:48.923Z,954.6
2016-04-23T01:53:48.943Z,954.57
2016-04-23T01:54:48.945Z,954.59
2016-04-23T01:55:48.963Z,954.57
2016-04-23T01:56:48.967Z,954.56
2016-04-23T01:57:48.969Z,954.55
2016-04-23T01:58:48.987Z,954.51
2016-04-23T01:59:48.989Z,954.6
2016-04-23T02:00:48.993Z,954.57
2016-04-23T02:01:48.995Z,954.59
2016-04-23T02:02:49.013Z,954.55
2016-04-23T02:03:49.016Z,954.54
2016-04-23T02:04:49.018Z,954.48
2016-04-23T02:05:49.022Z,954.53
2016-04-23T02:06:49.055Z,954.51
2016-04-23T02:07:49.043Z,954.5
2016-04-23T02:08:49.061Z,954.47
2016-04-23T02:09:49.064Z,954.47
2016-04-23T02:10:49.066Z,954.47
2016-04-23T02:11:49.084Z,954.46
2016-04-23T02:12:49.088Z,954.47
2016-04-23T02:13:49.090Z,954.49
2016-04-23T02:14:49.108Z,954.48
2016-04-23T02:15:49.110Z,954.44
2016-04-23T02:16:49.129Z,954.48
2016-04-23T02:17:49.116Z,954.47
2016-04-23T02:18:49.134Z,954.45
2016-04-23T02:19:49.137Z,954.4
2016-04-23T02:20:49.140Z,954.39
2016-04-23T02:21:49.159Z,954.38
2016-04-23T02:22:49.155Z,954.36
2016-04-23T02:23:49.173Z,954.32
2016-04-23T02:24:49.176Z,954.38
2016-04-23T02:25:49.178Z,954.35
2016-04-23T02:26:49.197Z,954.32
2016-04-23T02:27:49.199Z,954.35
2016-04-23T02:28:49.203Z,954.31
2016-04-23T02:29:49.221Z,954.34
2016-04-23T02:30:49.224Z,954.33
2016-04-23T02:31:49.227Z,954.28
2016-04-23T02:32:49.244Z,954.27
2016-04-23T02:33:49.247Z,954.27
2016-04-23T02:34:49.249Z,954.25
2016-04-23T02:35:49.268Z,954.26
2016-04-23T02:36:49.271Z,954.22
2016-04-23T02:37:49.274Z,954.18
2016-04-23T02:38:49.292Z,954.2
2016-04-23T02:39:49.295Z,954.2
2016-04-23T02:40:49.298Z,954.18
2016-04-23T02:41:49.300Z,954.16
2016-04-23T02:42:49.318Z,954.12
2016-04-23T02:43:49.321Z,954.13
2016-04-23T02:44:49.324Z,954.13
2016-04-23T02:45:49.342Z,954.11
2016-04-23T02:46:49.345Z,954.14
2016-04-23T02:47:49.348Z,954.12
2016-04-23T02:48:49.365Z,954.12
2016-04-23T02:49:49.368Z,954.1
2016-04-23T02:50:49.370Z,954.11
2016-04-23T02:51:49.390Z,954.1
2016-04-23T02:52:49.376Z,954.07
2016-04-23T02:53:49.394Z,954.11
2016-04-23T02:54:49.398Z,954.06
2016-04-23T02:55:49.416Z,954.04
2016-04-23T02:56:49.419Z,954.06
2016-04-23T02:57:49.436Z,954.01
2016-04-23T02:58:49.440Z,954.02
2016-04-23T02:59:49.442Z,954.01
2016-04-23T03:00:49.460Z,954
2016-04-23T03:01:49.463Z,953.96
2016-04-23T03:02:49.466Z,953.93
2016-04-23T03:03:49.469Z,953.96
2016-04-23T03:04:49.487Z,953.93
2016-04-23T03:05:49.490Z,953.95
2016-04-23T03:06:49.493Z,953.91
2016-04-23T03:07:49.510Z,953.92
2016-04-23T03:08:49.513Z,953.93
2016-04-23T03:09:49.516Z,953.89
2016-04-23T03:10:49.519Z,953.95
2016-04-23T03:11:49.537Z,953.95
2016-04-23T03:12:49.539Z,953.96
2016-04-23T03:13:49.558Z,953.98
2016-04-23T03:14:49.560Z,953.97
2016-04-23T03:15:49.562Z,953.96
2016-04-23T03:16:49.566Z,953.99
2016-04-23T03:17:49.584Z,953.98
2016-04-23T03:18:49.587Z,953.96
2016-04-23T03:19:49.590Z,953.96
2016-04-23T03:20:49.609Z,953.97
2016-04-23T03:21:49.611Z,953.96
2016-04-23T03:22:49.614Z,953.91
2016-04-23T03:23:49.631Z,953.94
2016-04-23T03:24:49.634Z,953.99
2016-04-23T03:25:49.636Z,953.97
2016-04-23T03:26:49.655Z,953.96
2016-04-23T03:27:49.659Z,954
2016-04-23T03:28:49.661Z,953.97
2016-04-23T03:29:49.664Z,953.95
2016-04-23T03:30:49.682Z,953.99
2016-04-23T03:31:49.685Z,953.95
2016-04-23T03:32:49.688Z,953.93
2016-04-23T03:33:49.705Z,953.91
2016-04-23T03:34:49.708Z,953.89
2016-04-23T03:35:49.711Z,953.9
2016-04-23T03:36:49.714Z,953.94
2016-04-23T03:37:49.732Z,953.9
2016-04-23T03:38:49.735Z,953.91
2016-04-23T03:39:49.753Z,953.92
2016-04-23T03:40:49.755Z,953.94
2016-04-23T03:41:49.757Z,953.92
2016-04-23T03:42:49.760Z,953.9
2016-04-23T03:43:49.780Z,953.84
2016-04-23T03:44:49.798Z,953.87
2016-04-23T03:45:49.801Z,953.91
2016-04-23T03:46:49.803Z,953.93
2016-04-23T03:47:49.821Z,953.88
2016-04-23T03:48:49.809Z,953.89
2016-04-23T03:49:49.826Z,953.88
2016-04-23T03:50:49.829Z,953.81
2016-04-23T03:51:49.832Z,953.85
2016-04-23T03:52:49.867Z,953.85
2016-04-23T03:53:49.853Z,953.84
2016-04-23T03:54:49.856Z,953.87
2016-04-23T03:55:49.862Z,953.86
2016-04-23T03:56:49.880Z,953.86
2016-04-23T03:57:49.883Z,953.87
2016-04-23T03:58:49.885Z,953.84
2016-04-23T03:59:49.889Z,953.89
2016-04-23T04:00:49.906Z,953.82
2016-04-23T04:01:49.910Z,953.8
2016-04-23T04:02:49.913Z,953.85
2016-04-23T04:03:49.931Z,953.86
2016-04-23T04:04:49.933Z,953.83
2016-04-23T04:05:49.936Z,953.83
2016-04-23T04:06:49.939Z,953.86
2016-04-23T04:07:49.957Z,953.85
2016-04-23T04:08:49.960Z,953.81
2016-04-23T04:09:49.978Z,953.84
2016-04-23T04:10:49.980Z,953.81
2016-04-23T04:11:49.984Z,953.84
2016-04-23T04:12:50.002Z,953.82
2016-04-23T04:13:50.005Z,953.81
2016-04-23T04:14:50.008Z,953.81
2016-04-23T04:15:50.025Z,953.79
2016-04-23T04:16:50.028Z,953.82
2016-04-23T04:17:50.031Z,953.79
2016-04-23T04:18:50.033Z,953.77
2016-04-23T04:19:50.052Z,953.8
2016-04-23T04:20:50.069Z,953.74
2016-04-23T04:21:50.057Z,953.76
2016-04-23T04:22:50.075Z,953.74
2016-04-23T04:23:50.078Z,953.73
2016-04-23T04:24:50.081Z,953.73
2016-04-23T04:25:50.099Z,953.71
2016-04-23T04:26:50.102Z,953.69
2016-04-23T04:27:50.104Z,953.64
2016-04-23T04:28:50.107Z,953.66
2016-04-23T04:29:50.126Z,953.67
2016-04-23T04:30:50.129Z,953.62
2016-04-23T04:31:50.132Z,953.58
2016-04-23T04:32:50.149Z,953.6
2016-04-23T04:33:50.152Z,953.61
2016-04-23T04:34:50.170Z,953.59
2016-04-23T04:35:50.173Z,953.59
2016-04-23T04:36:50.175Z,953.6
2016-04-23T04:37:50.178Z,953.57
2016-04-23T04:38:50.197Z,953.56
2016-04-23T04:39:50.200Z,953.57
2016-04-23T04:40:50.203Z,953.52
2016-04-23T04:41:50.205Z,953.51
2016-04-23T04:42:50.223Z,953.49
2016-04-23T04:43:50.225Z,953.47
2016-04-23T04:44:50.228Z,953.5
2016-04-23T04:45:50.247Z,953.46
2016-04-23T04:46:50.250Z,953.48
2016-04-23T04:47:50.253Z,953.43
2016-04-23T04:48:50.270Z,953.43
2016-04-23T04:49:50.273Z,953.41
2016-04-23T04:50:50.275Z,953.46
2016-04-23T04:51:50.294Z,953.41
2016-04-23T04:52:50.296Z,953.39
2016-04-23T04:53:50.315Z,953.39
2016-04-23T04:54:50.318Z,953.39
2016-04-23T04:55:50.321Z,953.37
2016-04-23T04:56:50.324Z,953.37
2016-04-23T04:57:50.341Z,953.4
2016-04-23T04:58:50.344Z,953.43
2016-04-23T04:59:50.346Z,953.43
2016-04-23T05:00:50.349Z,953.43
2016-04-23T05:01:50.368Z,953.42
2016-04-23T05:02:50.371Z,953.45
2016-04-23T05:03:50.390Z,953.45
2016-04-23T05:04:50.392Z,953.47
2016-04-23T05:05:50.395Z,953.42
2016-04-23T05:06:50.397Z,953.49
2016-04-23T05:07:50.416Z,953.49
2016-04-23T05:08:50.417Z,953.51
2016-04-23T05:09:50.420Z,953.44
2016-04-23T05:10:50.423Z,953.45
2016-04-23T05:11:50.442Z,953.43
2016-04-23T05:12:50.444Z,953.47
2016-04-23T05:13:50.462Z,953.46
2016-04-23T05:14:50.465Z,953.43
2016-04-23T05:15:50.468Z,953.45
2016-04-23T05:16:50.486Z,953.43
2016-04-23T05:17:50.489Z,953.43
2016-04-23T05:18:50.492Z,953.43
2016-04-23T05:19:50.495Z,953.45
2016-04-23T05:20:50.513Z,953.43
2016-04-23T05:21:50.516Z,953.44
2016-04-23T05:22:50.533Z,953.42
2016-04-23T05:23:50.521Z,953.39
2016-04-23T05:24:50.538Z,953.46
2016-04-23T05:25:50.541Z,953.43
2016-04-23T05:26:50.544Z,953.43
2016-04-23T05:27:50.563Z,953.42
2016-04-23T05:28:50.566Z,953.42
2016-04-23T05:29:50.568Z,953.42
2016-04-23T05:30:50.587Z,953.44
2016-04-23T05:31:50.589Z,953.45
2016-04-23T05:32:50.607Z,953.43
2016-04-23T05:33:50.610Z,953.42
2016-04-23T05:34:50.613Z,953.41
2016-04-23T05:35:50.615Z,953.41
2016-04-23T05:36:50.634Z,953.41
2016-04-23T05:37:50.637Z,953.39
2016-04-23T05:38:50.639Z,953.41
2016-04-23T05:39:50.657Z,953.45
2016-04-23T05:40:50.660Z,953.42
2016-04-23T05:41:50.663Z,953.43
2016-04-23T05:42:50.681Z,953.43
2016-04-23T05:43:50.684Z,953.42
2016-04-23T05:44:50.687Z,953.41
2016-04-23T05:45:50.689Z,953.42
2016-04-23T05:46:50.708Z,953.44
2016-04-23T05:47:50.710Z,953.42
2016-04-23T05:48:50.714Z,953.47
2016-04-23T05:49:50.716Z,953.49
2016-04-23T05:50:50.734Z,953.48
2016-04-23T05:51:50.737Z,953.47
2016-04-23T05:52:50.755Z,953.44
2016-04-23T05:53:50.758Z,953.48
2016-04-23T05:54:50.760Z,953.49
2016-04-23T05:55:50.779Z,953.5
2016-04-23T05:56:50.782Z,953.49
2016-04-23T05:57:50.799Z,953.48
2016-04-23T05:58:50.802Z,953.47
2016-04-23T05:59:50.805Z,953.49
2016-04-23T06:00:50.808Z,953.46
2016-04-23T06:01:50.810Z,953.44
2016-04-23T06:02:50.829Z,953.45
2016-04-23T06:03:50.831Z,953.44
2016-04-23T06:04:50.835Z,953.45
2016-04-23T06:05:50.837Z,953.48
2016-04-23T06:06:50.855Z,953.49
2016-04-23T06:07:50.858Z,953.47
2016-04-23T06:08:50.876Z,953.48
2016-04-23T06:09:50.879Z,953.5
2016-04-23T06:10:50.881Z,953.45
2016-04-23T06:11:50.884Z,953.43
2016-04-23T06:12:50.903Z,953.44
2016-04-23T06:13:50.905Z,953.45
2016-04-23T06:14:50.908Z,953.44
2016-04-23T06:15:50.926Z,953.42
2016-04-23T06:16:50.929Z,953.45
2016-04-23T06:17:50.931Z,953.42
2016-04-23T06:18:50.934Z,953.41
2016-04-23T06:19:50.952Z,953.41
2016-04-23T06:20:50.956Z,953.43
2016-04-23T06:21:50.975Z,953.4
2016-04-23T06:22:50.977Z,953.41
2016-04-23T06:23:50.980Z,953.41
2016-04-23T06:24:50.982Z,953.39
2016-04-23T06:25:51.000Z,953.4
2016-04-23T06:26:51.002Z,953.38
2016-04-23T06:27:51.021Z,953.4
2016-04-23T06:28:51.008Z,953.36
2016-04-23T06:29:51.027Z,953.37
2016-04-23T06:30:51.029Z,953.39
2016-04-23T06:31:51.047Z,953.38
2016-04-23T06:32:51.050Z,953.35
2016-04-23T06:33:51.052Z,953.37
2016-04-23T06:34:51.071Z,953.36
2016-04-23T06:35:51.073Z,953.33
2016-04-23T06:36:51.077Z,953.31
2016-04-23T06:37:51.096Z,953.31
2016-04-23T06:38:51.098Z,953.27
2016-04-23T06:39:51.101Z,953.27
2016-04-23T06:40:51.118Z,953.27
2016-04-23T06:41:51.137Z,953.27
2016-04-23T06:42:51.123Z,953.23
2016-04-23T06:43:51.126Z,953.27
2016-04-23T06:44:51.145Z,953.27
2016-04-23T06:45:51.148Z,953.25
2016-04-23T06:46:51.166Z,953.25
2016-04-23T06:47:51.169Z,953.25
2016-04-23T06:48:51.172Z,953.23
2016-04-23T06:49:51.189Z,953.23
2016-04-23T06:50:51.192Z,953.18
2016-04-23T06:51:51.194Z,953.22
2016-04-23T06:52:51.198Z,953.22
2016-04-23T06:53:51.201Z,953.18
2016-04-23T06:54:51.219Z,953.17
2016-04-23T06:55:51.222Z,953.14
2016-04-23T06:56:51.224Z,953.16
2016-04-23T06:57:51.242Z,953.12
2016-04-23T06:58:51.245Z,953.15
2016-04-23T06:59:51.263Z,953.14
2016-04-23T07:00:51.266Z,953.15
2016-04-23T07:01:51.269Z,953.16
2016-04-23T07:02:51.288Z,953.1
2016-04-23T07:03:51.290Z,953.13
2016-04-23T07:04:51.293Z,953.1
2016-04-23T07:05:51.295Z,953.11
2016-04-23T07:06:51.313Z,953.07
2016-04-23T07:07:51.347Z,953.02
2016-04-23T07:08:51.335Z,953.03
2016-04-23T07:09:51.338Z,953.05
2016-04-23T07:10:51.340Z,953.06
2016-04-23T07:11:51.343Z,953.03
2016-04-23T07:12:51.361Z,953.04
2016-04-23T07:13:51.364Z,953.07
2016-04-23T07:14:51.382Z,952.99
2016-04-23T07:15:51.369Z,953.03
2016-04-23T07:16:51.387Z,953.01
2016-04-23T07:17:51.390Z,953.01
2016-04-23T07:18:51.393Z,953
2016-04-23T07:19:51.411Z,953.01
2016-04-23T07:20:51.414Z,953.02
2016-04-23T07:21:51.431Z,952.99
2016-04-23T07:22:51.434Z,953.01
2016-04-23T07:23:51.437Z,953
2016-04-23T07:24:51.440Z,953.01
2016-04-23T07:25:51.458Z,953.02
2016-04-23T07:26:51.461Z,953
2016-04-23T07:27:51.463Z,953.02
2016-04-23T07:28:51.482Z,953.01
2016-04-23T07:29:51.485Z,953.02
2016-04-23T07:30:51.488Z,952.99
2016-04-23T07:31:51.505Z,953.02
2016-04-23T07:32:51.508Z,952.95
2016-04-23T07:33:51.511Z,952.95
2016-04-23T07:34:51.529Z,952.93
2016-04-23T07:35:51.532Z,952.92
2016-04-23T07:36:51.785Z,952.92
2016-04-23T07:37:51.538Z,952.96
2016-04-23T07:38:51.556Z,952.93
2016-04-23T07:39:51.559Z,952.93
2016-04-23T07:40:51.576Z,952.92
2016-04-23T07:41:51.611Z,952.93
2016-04-23T07:42:51.658Z,952.94
2016-04-23T07:43:51.705Z,952.89
2016-04-23T07:44:51.752Z,952.9
2016-04-23T07:45:51.814Z,952.89
2016-04-23T07:46:51.839Z,952.91
2016-04-23T07:47:51.873Z,952.9
2016-04-23T07:48:51.892Z,952.91
2016-04-23T07:49:51.911Z,952.92
2016-04-23T07:50:51.946Z,952.95
2016-04-23T07:51:51.957Z,952.94
2016-04-23T07:52:51.981Z,952.95
2016-04-23T07:53:51.974Z,952.96
2016-04-23T07:54:51.998Z,952.94
2016-04-23T07:55:52.006Z,952.95
2016-04-23T07:56:52.027Z,952.92
2016-04-23T07:57:52.032Z,952.91
2016-04-23T07:58:52.053Z,952.93
2016-04-23T07:59:52.057Z,952.9
2016-04-23T08:00:52.062Z,952.92
2016-04-23T08:01:52.065Z,952.89
2016-04-23T08:02:52.068Z,952.9
2016-04-23T08:03:52.089Z,952.87
2016-04-23T08:04:52.092Z,952.9
2016-04-23T08:05:52.111Z,952.88
2016-04-23T08:06:52.113Z,952.87
2016-04-23T08:07:52.117Z,952.86
2016-04-23T08:08:52.136Z,952.84
2016-04-23T08:09:52.138Z,952.87
2016-04-23T08:10:52.142Z,952.84
2016-04-23T08:11:52.159Z,952.86
2016-04-23T08:12:52.162Z,952.84
2016-04-23T08:13:52.165Z,952.85
2016-04-23T08:14:52.168Z,952.89
2016-04-23T08:15:52.186Z,952.86
2016-04-23T08:16:52.189Z,952.85
2016-04-23T08:17:52.191Z,952.84
2016-04-23T08:18:52.211Z,952.85
2016-04-23T08:19:52.213Z,952.85
2016-04-23T08:20:52.215Z,952.83
2016-04-23T08:21:52.233Z,952.82
2016-04-23T08:22:52.236Z,952.84
2016-04-23T08:23:52.255Z,952.83
2016-04-23T08:24:52.257Z,952.83
2016-04-23T08:25:52.261Z,952.87
2016-04-23T08:26:52.263Z,952.8
2016-04-23T08:27:52.328Z,952.83
2016-04-23T08:28:52.284Z,952.87
2016-04-23T08:29:52.291Z,952.85
2016-04-23T08:30:52.293Z,952.83
2016-04-23T08:31:52.313Z,952.85
2016-04-23T08:32:52.315Z,952.85
2016-04-23T08:33:52.334Z,952.85
2016-04-23T08:34:52.336Z,952.85
2016-04-23T08:35:52.339Z,952.82
2016-04-23T08:36:52.342Z,952.85
2016-04-23T08:37:52.359Z,952.85
2016-04-23T08:38:52.363Z,952.81
2016-04-23T08:39:52.381Z,952.81
2016-04-23T08:40:52.383Z,952.79
2016-04-23T08:41:52.387Z,952.82
2016-04-23T08:42:52.389Z,952.81
2016-04-23T08:43:52.407Z,952.83
2016-04-23T08:44:52.411Z,952.81
2016-04-23T08:45:52.428Z,952.81
2016-04-23T08:46:52.430Z,952.82
2016-04-23T08:47:52.433Z,952.82
2016-04-23T08:48:52.484Z,952.81
2016-04-23T08:49:52.455Z,952.82
2016-04-23T08:50:52.457Z,952.79
2016-04-23T08:51:52.476Z,952.82
2016-04-23T08:52:52.478Z,952.83
2016-04-23T08:53:52.496Z,952.77
2016-04-23T08:54:52.483Z,952.76
2016-04-23T08:55:52.502Z,952.82
2016-04-23T08:56:52.505Z,952.81
2016-04-23T08:57:52.508Z,952.76
2016-04-23T08:58:52.526Z,952.76
2016-04-23T08:59:52.529Z,952.76
2016-04-23T09:00:52.531Z,952.79
2016-04-23T09:01:52.565Z,952.77
2016-04-23T09:02:52.568Z,952.77
2016-04-23T09:03:52.554Z,952.74
2016-04-23T09:04:52.573Z,952.74
2016-04-23T09:05:52.576Z,952.78
2016-04-23T09:06:52.595Z,952.77
2016-04-23T09:07:52.612Z,952.78
2016-04-23T09:08:52.600Z,952.72
2016-04-23T09:09:52.617Z,952.75
2016-04-23T09:10:52.620Z,952.73
2016-04-23T09:11:52.639Z,952.76
2016-04-23T09:12:52.626Z,952.76
2016-04-23T09:13:52.644Z,952.73
2016-04-23T09:14:52.647Z,952.75
2016-04-23T09:15:52.665Z,952.74
2016-04-23T09:16:52.667Z,952.75
2016-04-23T09:17:52.670Z,952.71
2016-04-23T09:18:52.720Z,952.72
2016-04-23T09:19:52.708Z,952.73
2016-04-23T09:20:52.694Z,952.7
2016-04-23T09:21:52.713Z,952.69
2016-04-23T09:22:52.715Z,952.71
2016-04-23T09:23:52.718Z,952.66
2016-04-23T09:24:52.721Z,952.69
2016-04-23T09:25:52.739Z,952.68
2016-04-23T09:26:52.758Z,952.66
2016-04-23T09:27:52.760Z,952.68
2016-04-23T09:28:52.762Z,952.65
2016-04-23T09:29:52.782Z,952.66
2016-04-23T09:30:52.815Z,952.62
2016-04-23T09:31:52.849Z,952.67
2016-04-23T09:32:52.852Z,952.62
2016-04-23T09:33:52.807Z,952.64
2016-04-23T09:34:52.810Z,952.62
2016-04-23T09:35:52.813Z,952.61
2016-04-23T09:36:52.815Z,952.61
2016-04-23T09:37:52.834Z,952.57
2016-04-23T09:38:52.851Z,952.58
2016-04-23T09:39:52.901Z,952.54
2016-04-23T09:40:52.857Z,952.52
2016-04-23T09:41:52.860Z,952.51
2016-04-23T09:42:52.878Z,952.54
2016-04-23T09:43:52.881Z,952.51
2016-04-23T09:44:52.884Z,952.5
2016-04-23T09:45:52.902Z,952.5
2016-04-23T09:46:52.905Z,952.46
2016-04-23T09:47:52.908Z,952.48
2016-04-23T09:48:52.926Z,952.47
2016-04-23T09:49:52.929Z,952.49
2016-04-23T09:50:52.947Z,952.47
2016-04-23T09:51:52.950Z,952.5
2016-04-23T09:52:52.952Z,952.49
2016-04-23T09:53:52.971Z,952.51
2016-04-23T09:54:52.974Z,952.52
2016-04-23T09:55:52.976Z,952.46
2016-04-23T09:56:52.994Z,952.48
2016-04-23T09:57:52.997Z,952.45
2016-04-23T09:58:53.015Z,952.44
2016-04-23T09:59:53.018Z,952.44
2016-04-23T10:00:53.021Z,952.45
2016-04-23T10:01:53.024Z,952.45
2016-04-23T10:02:53.042Z,952.48
2016-04-23T10:03:53.044Z,952.42
2016-04-23T10:04:53.046Z,952.43
2016-04-23T10:05:53.065Z,952.43
2016-04-23T10:06:53.068Z,952.43
2016-04-23T10:07:53.087Z,952.4
2016-04-23T10:08:53.089Z,952.44
2016-04-23T10:09:53.092Z,952.42
2016-04-23T10:10:53.095Z,952.39
2016-04-23T10:11:53.112Z,952.37
2016-04-23T10:12:53.115Z,952.35
2016-04-23T10:13:53.118Z,952.38
2016-04-23T10:14:53.136Z,952.34
2016-04-23T10:15:53.155Z,952.28
2016-04-23T10:16:53.158Z,952.31
2016-04-23T10:17:53.160Z,952.27
2016-04-23T10:18:53.163Z,952.28
2016-04-23T10:19:53.181Z,952.27
2016-04-23T10:20:53.184Z,952.24
2016-04-23T10:21:53.186Z,952.25
2016-04-23T10:22:53.188Z,952.25
2016-04-23T10:23:53.211Z,952.24
2016-04-23T10:24:53.214Z,952.21
2016-04-23T10:25:53.216Z,952.23
2016-04-23T10:26:53.234Z,952.2
2016-04-23T10:27:53.236Z,952.2
2016-04-23T10:28:53.239Z,952.16
2016-04-23T10:29:53.258Z,952.19
2016-04-23T10:30:53.260Z,952.15
2016-04-23T10:31:53.279Z,952.14
2016-04-23T10:32:53.282Z,952.18
2016-04-23T10:33:53.957Z,952.16
2016-04-23T10:34:53.287Z,952.16
2016-04-23T10:35:53.305Z,952.18
2016-04-23T10:36:53.323Z,952.12
2016-04-23T10:37:53.310Z,952.14
2016-04-23T10:38:53.329Z,952.11
2016-04-23T10:39:53.331Z,952.13
2016-04-23T10:40:53.350Z,952.11
2016-04-23T10:41:53.353Z,952.06
2016-04-23T10:42:53.356Z,952.12
2016-04-23T10:43:53.373Z,952.05
2016-04-23T10:44:53.392Z,952.08
2016-04-23T10:45:53.395Z,952.07
2016-04-23T10:46:53.398Z,952.02
2016-04-23T10:47:53.400Z,952.01
2016-04-23T10:48:53.403Z,952.02
2016-04-23T10:49:53.562Z,952.02
2016-04-23T10:50:53.424Z,952
2016-04-23T10:51:53.426Z,951.97
2016-04-23T10:52:53.445Z,951.99
2016-04-23T10:53:53.447Z,951.94
2016-04-23T10:54:53.467Z,952
2016-04-23T10:55:53.469Z,951.98
2016-04-23T10:56:53.486Z,951.95
2016-04-23T10:57:53.489Z,951.95
2016-04-23T10:58:53.492Z,951.95
2016-04-23T10:59:53.495Z,951.89
2016-04-23T11:00:53.513Z,951.9
2016-04-23T11:01:53.516Z,951.9
2016-04-23T11:02:53.534Z,951.9
2016-04-23T11:03:53.521Z,951.91
2016-04-23T11:04:54.305Z,951.89
2016-04-23T11:05:53.543Z,951.88
2016-04-23T11:06:53.561Z,951.86
2016-04-23T11:07:53.563Z,951.83
2016-04-23T11:08:53.582Z,951.88
2016-04-23T11:09:53.584Z,951.87
2016-04-23T11:10:53.587Z,951.84
2016-04-23T11:11:53.605Z,951.85
2016-04-23T11:12:53.608Z,951.81
2016-04-23T11:13:53.611Z,951.8
2016-04-23T11:14:53.612Z,951.8
2016-04-23T11:15:53.631Z,951.79
2016-04-23T11:16:53.634Z,951.78
2016-04-23T11:17:53.637Z,951.78
2016-04-23T11:18:53.671Z,951.74
2016-04-23T11:19:53.956Z,951.74
2016-04-23T11:20:53.676Z,951.72
2016-04-23T11:21:53.679Z,951.72
2016-04-23T11:22:53.681Z,951.71
2016-04-23T11:23:53.700Z,951.71
2016-04-23T11:24:53.703Z,951.72
2016-04-23T11:25:53.705Z,951.68
2016-04-23T11:26:53.724Z,951.66
2016-04-23T11:27:53.727Z,951.62
2016-04-23T11:28:53.745Z,951.65
2016-04-23T11:29:53.747Z,951.63
2016-04-23T11:30:53.750Z,951.64
2016-04-23T11:31:53.769Z,951.62
2016-04-23T11:32:53.771Z,951.66
2016-04-23T11:33:53.774Z,951.61
2016-04-23T11:34:53.792Z,951.64
2016-04-23T11:35:53.795Z,951.59
2016-04-23T11:36:53.797Z,951.62
2016-04-23T11:37:53.816Z,951.59
2016-04-23T11:38:53.819Z,951.57
2016-04-23T11:39:53.821Z,951.56
2016-04-23T11:40:53.840Z,951.54
2016-04-23T11:41:53.842Z,951.52
2016-04-23T11:42:53.860Z,951.56
2016-04-23T11:43:53.863Z,951.53
2016-04-23T11:44:53.866Z,951.5
2016-04-23T11:45:53.885Z,951.48
2016-04-23T11:46:53.887Z,951.51
2016-04-23T11:47:53.889Z,951.45
2016-04-23T11:48:53.893Z,951.47
2016-04-23T11:49:53.926Z,951.45
2016-04-23T11:50:53.960Z,951.43
2016-04-23T11:51:53.932Z,951.41
2016-04-23T11:52:53.935Z,951.39
2016-04-23T11:53:53.953Z,951.36
2016-04-23T11:54:53.955Z,951.42
2016-04-23T11:55:53.958Z,951.37
2016-04-23T11:56:53.976Z,951.33
2016-04-23T11:57:53.979Z,951.31
2016-04-23T11:58:53.981Z,951.33
2016-04-23T11:59:54.000Z,951.3
2016-04-23T12:00:54.003Z,951.25
2016-04-23T12:01:54.006Z,951.24
2016-04-23T12:02:54.024Z,951.22
2016-04-23T12:03:54.027Z,951.21
2016-04-23T12:04:54.029Z,951.21
2016-04-23T12:05:54.047Z,951.22
2016-04-23T12:06:54.050Z,951.21
2016-04-23T12:07:54.053Z,951.19
2016-04-23T12:08:54.071Z,951.2
2016-04-23T12:09:54.090Z,951.15
2016-04-23T12:10:54.093Z,951.14
2016-04-23T12:11:54.095Z,951.15
2016-04-23T12:12:54.113Z,951.12
2016-04-23T12:13:54.115Z,951.09
2016-04-23T12:14:54.118Z,951.1
2016-04-23T12:15:54.121Z,951.06
2016-04-23T12:16:54.140Z,951.04
2016-04-23T12:17:54.142Z,951.01
2016-04-23T12:18:54.145Z,951.07
2016-04-23T12:19:54.866Z,951.01
2016-04-23T12:20:54.166Z,950.99
2016-04-23T12:21:54.168Z,951
2016-04-23T12:22:54.187Z,951
2016-04-23T12:23:54.189Z,951
2016-04-23T12:24:54.208Z,950.95
2016-04-23T12:25:54.226Z,950.92
2016-04-23T12:26:54.229Z,950.97
2016-04-23T12:27:54.232Z,950.9
2016-04-23T12:28:54.234Z,950.9
2016-04-23T12:29:54.236Z,950.87
2016-04-23T12:30:54.255Z,950.88
2016-04-23T12:31:54.258Z,950.85